Time;durP1;ratioP1;P1;durP2;ratioP2;P2;SDS_P1;SDS_P2;PMS_P1;PMS_P2;Temp;Humidity;BMP_temperature;BMP_pressure;BME280_temperature;BME280_humidity;BME280_pressure;Samples;Min_cycle;Max_cycle;Signal;HPM_P1;HPM_P2
2022/03/06 00:00:07;;;;;;;;;;;5.70;56.90;6.20;99491.00;;;;342968;28;91981;-85
2022/03/06 00:00:18;;;;;;;;;;;5.60;56.80;6.20;99496.00;;;;344598;28;92998;-86
2022/03/06 00:00:31;;;;;;;;;;;5.70;56.90;6.20;99498.00;;;;344373;28;92042;-85
2022/03/06 00:00:42;;;;;;;;;;;5.60;56.90;6.20;99497.00;;;;343121;28;96719;-86
2022/03/06 00:00:54;;;;;;;;;;;5.70;56.90;6.20;99498.00;;;;341607;28;92436;-86
2022/03/06 00:01:06;;;;;;;;;;;5.70;56.90;6.20;99504.00;;;;343055;28;96183;-86
2022/03/06 00:01:19;;;;;;;;;;;5.70;57.10;6.20;99500.00;;;;341196;28;91326;-85
2022/03/06 00:01:31;;;;;;;;;;;5.70;57.10;6.20;99508.00;;;;341708;28;94397;-85
2022/03/06 00:01:44;;;;;;;;;;;5.60;57.00;6.20;99496.00;;;;339963;28;91235;-85
2022/03/06 00:01:56;;;;;;;;;;;5.60;57.00;6.20;99504.00;;;;339097;28;96265;-85
2022/03/06 00:02:08;;;;;;;;;;;5.70;57.10;6.20;99496.00;;;;339994;28;91140;-85
2022/03/06 00:02:20;;;;;;;;;;;5.70;57.00;6.10;99502.00;;;;341816;28;94550;-86
2022/03/06 00:02:33;;;;;;;;;;;5.70;56.90;6.10;99494.00;;;;341662;28;91971;-86
2022/03/06 00:02:45;;;;;;;;;;;5.60;56.90;6.10;99507.00;;;;343268;28;93520;-86
2022/03/06 00:02:57;;;;;;;;;;;5.60;56.80;6.10;99503.00;;;;341489;28;92096;-86
2022/03/06 00:03:09;;;;;;;;;;;5.60;56.80;6.10;99497.00;;;;341739;28;95389;-86
2022/03/06 00:03:21;;;;;;;;;;;5.60;56.80;6.10;99495.00;;;;341510;28;91362;-85
2022/03/06 00:03:33;;;;;;;;;;;5.60;56.90;6.10;99503.00;;;;344592;28;95357;-85
2022/03/06 00:03:44;;;;;;;;;;;5.60;57.00;6.10;99495.00;;;;344389;28;91993;-85
2022/03/06 00:03:56;;;;;;;;;;;5.60;57.00;6.20;99498.00;;;;344542;28;95782;-85
2022/03/06 00:04:08;;;;;;;;;;;5.60;57.10;6.20;99502.00;;;;342907;28;92089;-85
2022/03/06 00:04:20;;;;;;;;;;;5.60;57.10;6.20;99500.00;;;;342192;28;93310;-85
2022/03/06 00:04:32;;;;;;;;;;;5.60;57.00;6.20;99506.00;;;;341494;28;92143;-86
2022/03/06 00:04:44;;;;;;;;;;;5.60;56.90;6.20;99497.00;;;;340467;28;92140;-85
2022/03/06 00:04:55;;;;;;;;;;;5.60;57.00;6.20;99499.00;;;;340289;28;91883;-85
2022/03/06 00:05:08;;;;;;;;;;;5.60;56.90;6.20;99501.00;;;;341836;28;93067;-86
2022/03/06 00:05:19;;;;;;;;;;;5.60;57.00;6.20;99500.00;;;;342811;28;91435;-86
2022/03/06 00:05:31;;;;;;;;;;;5.60;57.10;6.20;99499.00;;;;344579;28;96043;-85
2022/03/06 00:05:43;;;;;;;;;;;5.60;57.00;6.20;99505.00;;;;341406;28;92014;-85
2022/03/06 00:05:55;;;;;;;;;;;5.60;57.10;6.10;99511.00;;;;340337;28;95902;-85
2022/03/06 00:06:07;;;;;;;;;;;5.60;57.10;6.10;99505.00;;;;339951;28;92020;-86
2022/03/06 00:06:19;;;;;;;;;;;5.60;57.10;6.10;99506.00;;;;341860;28;93266;-85
2022/03/06 00:06:31;;;;;;;;;;;5.60;57.10;6.10;99504.00;;;;341542;28;91981;-84
2022/03/06 00:06:43;;;;;;;;;;;5.60;57.00;6.10;99502.00;;;;341823;28;93357;-85
2022/03/06 00:06:55;;;;;;;;;;;5.60;57.10;6.10;99501.00;;;;341727;28;92258;-86
2022/03/06 00:07:06;;;;;;;;;;;5.60;57.70;6.10;99499.00;;;;341845;28;93282;-85
2022/03/06 00:07:18;;;;;;;;;;;5.60;57.40;6.20;99503.00;;;;340364;28;91398;-85
2022/03/06 00:07:30;;;;;;;;;;;5.60;57.30;6.20;99508.00;;;;340315;28;95856;-85
2022/03/06 00:07:42;;;;;;;;;;;5.60;57.30;6.20;99501.00;;;;340293;28;91178;-85
2022/03/06 00:07:56;;;;;;;;;;;5.60;57.80;6.10;99502.00;;;;340300;28;94064;-86
2022/03/06 00:08:07;;;;;;;;;;;5.60;57.30;6.10;99509.00;;;;341690;28;91875;-85
2022/03/06 00:08:19;;;;;;;;;;;5.60;57.30;6.10;99500.00;;;;340422;28;93773;-85
2022/03/06 00:08:31;;;;;;;;;;;5.60;57.30;6.10;99497.00;;;;341580;28;91991;-85
2022/03/06 00:08:43;;;;;;;;;;;5.60;57.20;6.10;99498.00;;;;343207;28;93011;-85
2022/03/06 00:08:55;;;;;;;;;;;5.60;57.20;6.20;99498.00;;;;341637;28;91947;-85
2022/03/06 00:09:07;;;;;;;;;;;5.60;57.20;6.10;99501.00;;;;340372;28;95614;-85
2022/03/06 00:09:18;;;;;;;;;;;5.60;57.20;6.10;99507.00;;;;339952;28;91286;-85
2022/03/06 00:09:30;;;;;;;;;;;5.60;57.20;6.10;99506.00;;;;340523;28;93181;-86
2022/03/06 00:09:42;;;;;;;;;;;5.60;57.20;6.10;99500.00;;;;341599;28;91872;-85
2022/03/06 00:09:54;;;;;;;;;;;5.60;57.30;6.00;99500.00;;;;343111;28;95977;-85
2022/03/06 00:10:06;;;;;;;;;;;5.60;57.40;6.00;99501.00;;;;341568;28;92027;-85
2022/03/06 00:10:22;;;;;;;;;;;5.50;57.50;6.10;99501.00;;;;342753;28;93369;-85
2022/03/06 00:10:34;;;;;;;;;;;5.60;57.50;6.10;99501.00;;;;342883;28;92134;-85
2022/03/06 00:10:47;;;;;;;;;;;5.60;57.50;6.10;99507.00;;;;342209;28;95587;-85
2022/03/06 00:10:59;;;;;;;;;;;5.60;57.50;6.10;99501.00;;;;344261;28;92006;-85
2022/03/06 00:11:10;;;;;;;;;;;5.50;57.50;6.10;99512.00;;;;343160;28;93179;-85
2022/03/06 00:11:22;;;;;;;;;;;5.60;57.70;6.10;99503.00;;;;344259;28;91363;-86
2022/03/06 00:11:34;;;;;;;;;;;5.60;57.60;6.10;99509.00;;;;341765;28;94257;-86
2022/03/06 00:11:46;;;;;;;;;;;5.60;57.50;6.10;99505.00;;;;342959;28;92065;-85
2022/03/06 00:11:58;;;;;;;;;;;5.50;57.50;6.00;99500.00;;;;344520;28;95776;-85
2022/03/06 00:12:10;;;;;;;;;;;5.60;57.60;6.10;99508.00;;;;343086;28;91786;-85
2022/03/06 00:12:21;;;;;;;;;;;5.50;57.50;6.10;99500.00;;;;341753;28;94804;-85
2022/03/06 00:12:33;;;;;;;;;;;5.50;57.50;6.10;99508.00;;;;341243;28;91840;-85
2022/03/06 00:12:45;;;;;;;;;;;5.50;57.50;6.00;99511.00;;;;343223;28;95736;-85
2022/03/06 00:12:57;;;;;;;;;;;5.60;57.50;6.00;99505.00;;;;342941;28;91952;-86
2022/03/06 00:13:09;;;;;;;;;;;5.50;57.50;6.00;99500.00;;;;341802;28;95862;-85
2022/03/06 00:13:21;;;;;;;;;;;5.50;57.50;6.00;99510.00;;;;343833;28;90613;-85
2022/03/06 00:13:33;;;;;;;;;;;5.50;57.60;6.00;99505.00;;;;343111;28;95066;-85
2022/03/06 00:13:45;;;;;;;;;;;5.50;57.50;6.00;99503.00;;;;342363;28;92007;-85
2022/03/06 00:13:57;;;;;;;;;;;5.50;57.50;6.00;99504.00;;;;343179;28;93471;-85
2022/03/06 00:14:09;;;;;;;;;;;5.50;57.50;6.00;99506.00;;;;340331;28;91104;-85
2022/03/06 00:14:20;;;;;;;;;;;5.50;57.70;6.00;99509.00;;;;339849;28;93388;-85
2022/03/06 00:14:33;;;;;;;;;;;5.50;57.70;6.00;99505.00;;;;341601;28;91149;-86
2022/03/06 00:14:45;;;;;;;;;;;5.50;57.70;6.10;99504.00;;;;341807;28;94009;-85
2022/03/06 00:14:56;;;;;;;;;;;5.50;57.60;6.10;99513.00;;;;341637;28;91202;-85
2022/03/06 00:15:09;;;;;;;;;;;5.50;57.60;6.00;99512.00;;;;343170;28;92406;-85
2022/03/06 00:15:26;;;;;;;;;;;5.50;57.80;6.00;99505.00;;;;340352;28;90386;-85
2022/03/06 00:15:39;;;;;;;;;;;5.50;57.80;6.00;99505.00;;;;340497;28;92797;-86
2022/03/06 00:15:51;;;;;;;;;;;5.50;57.80;6.10;99500.00;;;;341558;28;91916;-85
2022/03/06 00:16:03;;;;;;;;;;;5.50;57.80;6.00;99515.00;;;;341893;28;93751;-85
2022/03/06 00:16:15;;;;;;;;;;;5.50;57.80;6.00;99514.00;;;;338960;28;91212;-85
2022/03/06 00:16:27;;;;;;;;;;;5.50;57.70;6.10;99513.00;;;;338916;28;93041;-86
2022/03/06 00:16:39;;;;;;;;;;;5.50;57.70;6.00;99506.00;;;;341598;28;91972;-86
2022/03/06 00:16:52;;;;;;;;;;;5.50;57.80;6.00;99509.00;;;;341946;28;96312;-85
2022/03/06 00:17:03;;;;;;;;;;;5.50;57.70;6.00;99506.00;;;;341493;28;92078;-85
2022/03/06 00:17:15;;;;;;;;;;;5.50;57.70;6.00;99508.00;;;;341751;28;93707;-86
2022/03/06 00:17:27;;;;;;;;;;;5.50;57.70;6.10;99502.00;;;;341542;28;91285;-85
2022/03/06 00:17:39;;;;;;;;;;;5.50;57.80;6.00;99501.00;;;;341861;28;92874;-85
2022/03/06 00:17:51;;;;;;;;;;;5.50;57.70;6.00;99506.00;;;;341517;28;92440;-86
2022/03/06 00:18:03;;;;;;;;;;;5.50;57.60;6.00;99510.00;;;;341792;28;95842;-85
2022/03/06 00:18:15;;;;;;;;;;;5.50;57.70;6.10;99508.00;;;;340219;28;91937;-86
2022/03/06 00:18:27;;;;;;;;;;;5.50;57.70;6.00;99506.00;;;;341786;28;96284;-85
2022/03/06 00:18:40;;;;;;;;;;;5.50;57.80;6.10;99507.00;;;;341504;28;91999;-85
2022/03/06 00:18:51;;;;;;;;;;;5.50;58.50;6.00;99507.00;;;;343182;28;95947;-85
2022/03/06 00:19:03;;;;;;;;;;;5.50;57.90;6.00;99505.00;;;;342971;28;91899;-85
2022/03/06 00:19:15;;;;;;;;;;;5.50;58.00;6.00;99504.00;;;;340945;28;93606;-86
2022/03/06 00:19:27;;;;;;;;;;;5.50;57.90;6.10;99507.00;;;;338915;28;91358;-85
2022/03/06 00:19:38;;;;;;;;;;;5.40;58.00;6.10;99504.00;;;;343240;28;92648;-85
2022/03/06 00:19:50;;;;;;;;;;;5.50;58.00;6.00;99515.00;;;;341659;28;92120;-85
2022/03/06 00:20:02;;;;;;;;;;;5.40;58.00;6.00;99497.00;;;;341854;28;95188;-86
2022/03/06 00:20:15;;;;;;;;;;;5.50;58.00;6.10;99514.00;;;;341496;28;91877;-86
2022/03/06 00:20:27;;;;;;;;;;;5.50;57.90;6.10;99508.00;;;;343011;28;96340;-85
2022/03/06 00:20:41;;;;;;;;;;;5.50;57.90;6.10;99508.00;;;;344293;28;91942;-85
2022/03/06 00:20:54;;;;;;;;;;;5.50;57.90;6.10;99513.00;;;;341930;28;92056;-85
2022/03/06 00:21:06;;;;;;;;;;;5.50;57.90;6.10;99505.00;;;;341571;28;91112;-85
2022/03/06 00:21:18;;;;;;;;;;;5.50;58.00;6.00;99507.00;;;;341935;28;92844;-86
2022/03/06 00:21:30;;;;;;;;;;;5.50;57.90;6.10;99509.00;;;;343028;28;91089;-85
2022/03/06 00:21:42;;;;;;;;;;;5.50;58.00;6.00;99514.00;;;;340367;28;93223;-85
2022/03/06 00:21:54;;;;;;;;;;;5.50;58.00;6.00;99513.00;;;;341575;28;92048;-85
2022/03/06 00:22:06;;;;;;;;;;;5.50;58.00;6.00;99510.00;;;;341913;28;93227;-86
2022/03/06 00:22:18;;;;;;;;;;;5.40;57.90;6.00;99509.00;;;;342502;28;92167;-85
2022/03/06 00:22:29;;;;;;;;;;;5.50;57.80;6.10;99507.00;;;;342059;28;95844;-85
2022/03/06 00:22:41;;;;;;;;;;;5.50;57.80;6.00;99512.00;;;;342513;28;92047;-86
2022/03/06 00:22:53;;;;;;;;;;;5.50;57.90;6.00;99507.00;;;;340440;28;94860;-86
2022/03/06 00:23:05;;;;;;;;;;;5.50;57.80;6.00;99509.00;;;;341609;28;92350;-85
2022/03/06 00:23:17;;;;;;;;;;;5.50;57.80;6.10;99508.00;;;;343006;28;96543;-85
2022/03/06 00:23:29;;;;;;;;;;;5.50;57.70;6.10;99517.00;;;;342989;28;90417;-85
2022/03/06 00:23:41;;;;;;;;;;;5.50;57.70;6.10;99513.00;;;;343178;28;93902;-85
2022/03/06 00:23:53;;;;;;;;;;;5.50;57.80;6.10;99515.00;;;;341526;28;92110;-85
2022/03/06 00:24:06;;;;;;;;;;;5.50;57.80;6.10;99513.00;;;;340542;28;93441;-85
2022/03/06 00:24:17;;;;;;;;;;;5.50;57.80;6.00;99516.00;;;;340181;28;91163;-85
2022/03/06 00:24:29;;;;;;;;;;;5.50;57.80;6.00;99515.00;;;;340382;28;96798;-85
2022/03/06 00:24:41;;;;;;;;;;;5.50;57.90;6.00;99515.00;;;;338846;28;91925;-86
2022/03/06 00:24:56;;;;;;;;;;;5.50;57.90;6.00;99503.00;;;;343149;28;93929;-85
2022/03/06 00:25:08;;;;;;;;;;;5.50;57.90;6.00;99512.00;;;;342740;28;91384;-86
2022/03/06 00:25:20;;;;;;;;;;;5.50;58.00;6.00;99504.00;;;;341299;28;94924;-85
2022/03/06 00:25:31;;;;;;;;;;;5.50;58.10;6.00;99511.00;;;;340190;28;90474;-85
2022/03/06 00:25:43;;;;;;;;;;;5.50;58.10;6.00;99519.00;;;;340407;28;94518;-85
2022/03/06 00:25:55;;;;;;;;;;;5.50;58.00;6.00;99518.00;;;;341533;28;92054;-86
2022/03/06 00:26:07;;;;;;;;;;;5.50;58.00;6.10;99504.00;;;;343183;28;95699;-86
2022/03/06 00:26:19;;;;;;;;;;;5.50;58.00;6.10;99511.00;;;;343625;28;91866;-85
2022/03/06 00:26:31;;;;;;;;;;;5.50;57.90;6.00;99504.00;;;;341706;28;94949;-86
2022/03/06 00:26:43;;;;;;;;;;;5.50;58.00;6.10;99510.00;;;;341550;28;92111;-86
2022/03/06 00:26:55;;;;;;;;;;;5.50;58.00;6.00;99509.00;;;;343225;28;93334;-86
2022/03/06 00:27:06;;;;;;;;;;;5.50;58.50;5.90;99513.00;;;;342882;28;92051;-85
2022/03/06 00:27:18;;;;;;;;;;;5.50;58.00;5.90;99517.00;;;;341565;28;93476;-85
2022/03/06 00:27:30;;;;;;;;;;;5.50;57.90;6.00;99509.00;;;;340307;28;90403;-86
2022/03/06 00:27:42;;;;;;;;;;;5.50;57.90;6.00;99514.00;;;;341766;28;94913;-86
2022/03/06 00:27:54;;;;;;;;;;;5.50;58.20;6.00;99518.00;;;;342944;28;92029;-86
2022/03/06 00:28:05;;;;;;;;;;;5.40;58.00;6.00;99507.00;;;;343212;28;96463;-86
2022/03/06 00:28:17;;;;;;;;;;;5.50;58.10;6.00;99506.00;;;;341149;28;92200;-85
2022/03/06 00:28:29;;;;;;;;;;;5.50;58.10;6.10;99512.00;;;;340678;28;96223;-86
2022/03/06 00:28:41;;;;;;;;;;;5.50;58.00;6.00;99514.00;;;;344242;28;92018;-86
2022/03/06 00:28:52;;;;;;;;;;;5.50;58.00;6.10;99519.00;;;;343149;28;96222;-86
2022/03/06 00:29:04;;;;;;;;;;;5.50;58.00;6.00;99512.00;;;;341472;28;92066;-85
2022/03/06 00:29:16;;;;;;;;;;;5.50;58.00;6.00;99515.00;;;;341854;28;93992;-86
2022/03/06 00:29:28;;;;;;;;;;;5.50;58.10;6.00;99515.00;;;;341581;28;91210;-85
2022/03/06 00:29:40;;;;;;;;;;;5.50;58.10;6.10;99506.00;;;;343225;28;92989;-85
2022/03/06 00:29:51;;;;;;;;;;;5.50;58.10;6.00;99509.00;;;;342688;28;91998;-85
2022/03/06 00:30:04;;;;;;;;;;;5.50;58.10;6.00;99517.00;;;;343091;28;93321;-85
2022/03/06 00:30:16;;;;;;;;;;;5.50;58.10;6.10;99527.00;;;;341391;28;91894;-85
2022/03/06 00:30:28;;;;;;;;;;;5.50;58.00;6.10;99511.00;;;;343077;28;96432;-85
2022/03/06 00:30:41;;;;;;;;;;;5.50;58.10;6.10;99518.00;;;;343007;28;92045;-85
2022/03/06 00:30:53;;;;;;;;;;;5.50;58.10;6.00;99522.00;;;;341798;28;96251;-85
2022/03/06 00:31:05;;;;;;;;;;;5.50;58.10;5.90;99517.00;;;;341470;28;92067;-85
2022/03/06 00:31:17;;;;;;;;;;;5.50;58.10;6.00;99515.00;;;;342095;28;95097;-85
2022/03/06 00:31:29;;;;;;;;;;;5.50;58.10;6.10;99514.00;;;;340745;28;91189;-85
2022/03/06 00:31:41;;;;;;;;;;;5.50;58.10;6.10;99512.00;;;;341866;28;92623;-85
2022/03/06 00:31:52;;;;;;;;;;;5.50;58.20;6.10;99521.00;;;;341452;28;92802;-85
2022/03/06 00:32:04;;;;;;;;;;;5.50;58.20;6.10;99507.00;;;;340476;28;94928;-85
2022/03/06 00:32:16;;;;;;;;;;;5.50;58.10;6.00;99518.00;;;;341540;28;92008;-85
2022/03/06 00:32:28;;;;;;;;;;;5.50;58.10;6.00;99510.00;;;;340445;28;93374;-86
2022/03/06 00:32:40;;;;;;;;;;;5.50;58.00;6.00;99526.00;;;;341577;28;92091;-85
2022/03/06 00:32:51;;;;;;;;;;;5.50;58.00;6.00;99515.00;;;;340386;28;95585;-85
2022/03/06 00:33:06;;;;;;;;;;;5.50;58.10;5.90;99519.00;;;;341557;28;91992;-86
2022/03/06 00:33:18;;;;;;;;;;;5.50;58.20;5.90;99521.00;;;;341869;28;93439;-85
2022/03/06 00:33:30;;;;;;;;;;;5.40;58.10;5.90;99517.00;;;;342833;28;90462;-85
2022/03/06 00:33:42;;;;;;;;;;;5.40;58.10;5.90;99521.00;;;;341722;28;92461;-85
2022/03/06 00:33:54;;;;;;;;;;;5.50;58.20;6.00;99517.00;;;;340250;28;91247;-86
2022/03/06 00:34:05;;;;;;;;;;;5.40;58.10;6.00;99518.00;;;;343116;28;95316;-86
2022/03/06 00:34:17;;;;;;;;;;;5.50;58.20;6.00;99525.00;;;;342596;28;92079;-86
2022/03/06 00:34:29;;;;;;;;;;;5.50;58.30;6.10;99519.00;;;;340756;28;92022;-85
2022/03/06 00:34:42;;;;;;;;;;;5.50;58.40;6.10;99517.00;;;;342992;28;91960;-85
2022/03/06 00:34:54;;;;;;;;;;;5.50;58.40;6.10;99521.00;;;;339207;28;92578;-85
2022/03/06 00:35:07;;;;;;;;;;;5.50;58.30;6.00;99522.00;;;;340218;28;91947;-86
2022/03/06 00:35:18;;;;;;;;;;;5.50;58.30;5.90;99508.00;;;;342324;28;93875;-85
2022/03/06 00:35:30;;;;;;;;;;;5.40;58.30;5.90;99515.00;;;;343047;28;91110;-85
2022/03/06 00:35:42;;;;;;;;;;;5.40;58.20;5.90;99523.00;;;;343107;28;94549;-85
2022/03/06 00:35:54;;;;;;;;;;;5.40;58.20;5.90;99518.00;;;;342874;28;91244;-85
2022/03/06 00:36:06;;;;;;;;;;;5.40;58.20;5.90;99526.00;;;;341948;28;93411;-85
2022/03/06 00:36:18;;;;;;;;;;;5.40;58.20;5.90;99520.00;;;;341642;28;91216;-85
2022/03/06 00:36:30;;;;;;;;;;;5.40;58.30;5.90;99523.00;;;;340314;28;93476;-85
2022/03/06 00:36:41;;;;;;;;;;;5.40;58.40;5.90;99517.00;;;;341417;28;91922;-86
2022/03/06 00:36:53;;;;;;;;;;;5.40;58.40;5.90;99512.00;;;;341868;28;93014;-85
2022/03/06 00:37:05;;;;;;;;;;;5.40;58.40;6.00;99519.00;;;;341468;28;92110;-86
2022/03/06 00:37:17;;;;;;;;;;;5.40;58.40;6.00;99514.00;;;;341494;28;93272;-85
2022/03/06 00:37:29;;;;;;;;;;;5.40;58.30;6.00;99520.00;;;;341918;28;91246;-85
2022/03/06 00:37:40;;;;;;;;;;;5.40;58.40;6.00;99525.00;;;;343069;28;93995;-85
2022/03/06 00:37:52;;;;;;;;;;;5.40;58.40;6.00;99518.00;;;;341434;28;92039;-85
2022/03/06 00:38:04;;;;;;;;;;;5.40;58.40;6.00;99522.00;;;;341846;28;94782;-86
2022/03/06 00:38:16;;;;;;;;;;;5.40;58.50;6.00;99520.00;;;;340131;28;91975;-85
2022/03/06 00:38:28;;;;;;;;;;;5.40;58.40;6.00;99518.00;;;;340392;28;94811;-86
2022/03/06 00:38:40;;;;;;;;;;;5.40;58.50;6.00;99521.00;;;;342870;28;92039;-86
2022/03/06 00:38:51;;;;;;;;;;;5.40;58.40;5.90;99528.00;;;;341825;28;94871;-85
2022/03/06 00:39:04;;;;;;;;;;;5.40;58.50;5.90;99525.00;;;;341298;28;91892;-85
2022/03/06 00:39:16;;;;;;;;;;;5.40;58.50;5.90;99522.00;;;;339059;28;93864;-86
2022/03/06 00:39:27;;;;;;;;;;;5.40;58.50;5.90;99517.00;;;;338814;28;91463;-85
2022/03/06 00:39:39;;;;;;;;;;;5.40;58.50;5.80;99521.00;;;;340501;28;92934;-86
2022/03/06 00:39:51;;;;;;;;;;;5.40;58.50;5.90;99525.00;;;;340191;28;91234;-85
2022/03/06 00:40:04;;;;;;;;;;;5.40;58.50;6.00;99512.00;;;;341748;28;95296;-85
2022/03/06 00:40:16;;;;;;;;;;;5.40;58.50;6.00;99520.00;;;;341874;28;91938;-85
2022/03/06 00:40:27;;;;;;;;;;;5.40;58.50;6.00;99517.00;;;;341521;28;96569;-85
2022/03/06 00:40:42;;;;;;;;;;;5.40;58.60;6.00;99510.00;;;;341491;28;91987;-86
2022/03/06 00:40:53;;;;;;;;;;;5.40;58.60;6.00;99519.00;;;;340513;28;93571;-85
2022/03/06 00:41:05;;;;;;;;;;;5.40;58.40;5.90;99521.00;;;;339999;28;91238;-86
2022/03/06 00:41:17;;;;;;;;;;;5.40;58.60;5.90;99525.00;;;;340683;28;95870;-85
2022/03/06 00:41:29;;;;;;;;;;;5.40;58.60;6.00;99515.00;;;;342874;28;90589;-85
2022/03/06 00:41:41;;;;;;;;;;;5.40;58.50;6.00;99521.00;;;;341681;28;95822;-85
2022/03/06 00:41:52;;;;;;;;;;;5.40;58.50;6.00;99521.00;;;;342884;28;92013;-85
2022/03/06 00:42:04;;;;;;;;;;;5.40;58.60;6.00;99520.00;;;;343198;28;93546;-85
2022/03/06 00:42:17;;;;;;;;;;;5.40;58.60;6.00;99526.00;;;;344426;28;91006;-86
2022/03/06 00:42:28;;;;;;;;;;;5.40;58.60;6.10;99515.00;;;;344419;28;95107;-85
2022/03/06 00:42:40;;;;;;;;;;;5.40;58.60;6.00;99518.00;;;;343013;28;91789;-85
2022/03/06 00:42:52;;;;;;;;;;;5.40;58.70;6.00;99522.00;;;;344415;28;96660;-85
2022/03/06 00:43:04;;;;;;;;;;;5.40;58.70;6.00;99512.00;;;;344255;28;92130;-85
2022/03/06 00:43:16;;;;;;;;;;;5.40;58.60;6.00;99517.00;;;;345449;28;93596;-86
2022/03/06 00:43:27;;;;;;;;;;;5.40;58.50;6.00;99525.00;;;;344213;28;91290;-85
2022/03/06 00:43:39;;;;;;;;;;;5.40;58.60;6.00;99518.00;;;;343176;28;93204;-85
2022/03/06 00:43:51;;;;;;;;;;;5.40;58.50;6.00;99516.00;;;;341496;28;92051;-86
2022/03/06 00:44:03;;;;;;;;;;;5.40;58.50;6.00;99516.00;;;;341819;28;93815;-85
2022/03/06 00:44:16;;;;;;;;;;;5.40;58.60;6.00;99516.00;;;;341532;28;91906;-85
2022/03/06 00:44:28;;;;;;;;;;;5.40;58.70;6.00;99513.00;;;;343138;28;93597;-85
2022/03/06 00:44:40;;;;;;;;;;;5.40;58.60;6.00;99511.00;;;;342925;28;91874;-85
2022/03/06 00:44:53;;;;;;;;;;;5.40;58.50;6.00;99512.00;;;;342890;28;96487;-85
2022/03/06 00:45:06;;;;;;;;;;;5.40;58.50;6.00;99516.00;;;;342969;28;91859;-86
2022/03/06 00:45:17;;;;;;;;;;;5.40;58.50;6.00;99512.00;;;;341762;28;93920;-85
2022/03/06 00:45:29;;;;;;;;;;;5.40;58.40;6.10;99522.00;;;;341536;28;91147;-85
2022/03/06 00:45:41;;;;;;;;;;;5.40;58.40;6.10;99509.00;;;;341694;28;96259;-85
2022/03/06 00:45:53;;;;;;;;;;;5.40;58.40;6.00;99525.00;;;;340260;28;92058;-85
2022/03/06 00:46:05;;;;;;;;;;;5.40;58.40;6.00;99514.00;;;;341771;28;97000;-85
2022/03/06 00:46:17;;;;;;;;;;;5.40;58.40;6.00;99519.00;;;;339792;28;92186;-85
2022/03/06 00:46:29;;;;;;;;;;;5.50;58.50;5.90;99514.00;;;;338474;28;93409;-85
2022/03/06 00:46:41;;;;;;;;;;;5.40;58.60;5.90;99518.00;;;;341573;28;92080;-86
2022/03/06 00:46:53;;;;;;;;;;;5.40;58.50;5.90;99514.00;;;;340492;28;93537;-85
2022/03/06 00:47:04;;;;;;;;;;;5.40;58.50;6.00;99522.00;;;;338786;28;92062;-85
2022/03/06 00:47:16;;;;;;;;;;;5.40;58.60;6.00;99513.00;;;;340594;28;97325;-85
2022/03/06 00:47:28;;;;;;;;;;;5.40;58.70;6.00;99517.00;;;;341436;28;91838;-85
2022/03/06 00:47:40;;;;;;;;;;;5.40;58.60;6.00;99521.00;;;;341877;28;92949;-86
2022/03/06 00:47:51;;;;;;;;;;;5.40;58.70;6.00;99516.00;;;;342892;28;92339;-85
2022/03/06 00:48:04;;;;;;;;;;;5.40;58.50;6.00;99516.00;;;;343218;28;93423;-85
2022/03/06 00:48:15;;;;;;;;;;;5.40;58.50;6.00;99518.00;;;;341487;28;91973;-85
2022/03/06 00:48:27;;;;;;;;;;;5.50;58.50;6.00;99519.00;;;;341806;28;92610;-85
2022/03/06 00:48:39;;;;;;;;;;;5.50;58.50;6.00;99520.00;;;;341425;28;91999;-85
2022/03/06 00:48:51;;;;;;;;;;;5.50;58.50;6.00;99516.00;;;;341829;28;93323;-85
2022/03/06 00:49:02;;;;;;;;;;;5.50;58.40;6.00;99516.00;;;;344216;28;91182;-85
2022/03/06 00:49:14;;;;;;;;;;;5.50;58.40;6.00;99518.00;;;;344108;28;93659;-86
2022/03/06 00:49:26;;;;;;;;;;;5.50;58.40;6.00;99520.00;;;;344203;28;91342;-85
2022/03/06 00:49:38;;;;;;;;;;;5.50;58.40;6.00;99518.00;;;;341688;28;95952;-85
2022/03/06 00:49:50;;;;;;;;;;;5.50;58.40;6.00;99516.00;;;;341403;28;92091;-85
2022/03/06 00:50:02;;;;;;;;;;;5.50;58.30;6.00;99525.00;;;;341766;28;94711;-85
2022/03/06 00:50:14;;;;;;;;;;;5.50;58.30;6.00;99517.00;;;;342964;28;91877;-85
2022/03/06 00:50:26;;;;;;;;;;;5.50;58.30;6.00;99511.00;;;;343077;28;93485;-85
2022/03/06 00:50:38;;;;;;;;;;;5.40;58.40;6.00;99519.00;;;;342716;28;91608;-85
2022/03/06 00:50:50;;;;;;;;;;;5.50;58.60;5.90;99524.00;;;;341735;28;95413;-85
2022/03/06 00:51:01;;;;;;;;;;;5.50;58.60;5.90;99521.00;;;;341617;28;91906;-85
2022/03/06 00:51:13;;;;;;;;;;;5.50;58.60;6.00;99526.00;;;;341740;28;95675;-85
2022/03/06 00:51:25;;;;;;;;;;;5.50;58.60;6.00;99520.00;;;;341641;28;91260;-85
2022/03/06 00:51:37;;;;;;;;;;;5.50;58.70;6.00;99513.00;;;;340475;28;94251;-86
2022/03/06 00:51:49;;;;;;;;;;;5.40;58.60;6.00;99519.00;;;;341468;28;91260;-85
2022/03/06 00:52:01;;;;;;;;;;;5.50;58.80;5.90;99520.00;;;;341769;28;94712;-85
2022/03/06 00:52:12;;;;;;;;;;;5.50;58.60;5.90;99525.00;;;;340297;28;91971;-85
2022/03/06 00:52:24;;;;;;;;;;;5.50;58.50;5.90;99523.00;;;;341185;28;93166;-85
2022/03/06 00:52:37;;;;;;;;;;;5.40;58.40;5.90;99524.00;;;;342933;28;91988;-85
2022/03/06 00:52:49;;;;;;;;;;;5.40;58.40;5.90;99519.00;;;;341661;28;95995;-85
2022/03/06 00:53:01;;;;;;;;;;;5.40;58.40;5.90;99514.00;;;;341451;28;92058;-86
2022/03/06 00:53:13;;;;;;;;;;;5.40;58.50;5.90;99525.00;;;;341783;28;93387;-85
2022/03/06 00:53:24;;;;;;;;;;;5.40;58.50;5.90;99516.00;;;;341674;28;91043;-85
2022/03/06 00:53:36;;;;;;;;;;;5.40;58.50;5.90;99519.00;;;;343148;28;95322;-85
2022/03/06 00:53:48;;;;;;;;;;;5.40;58.50;5.90;99519.00;;;;342809;28;92201;-85
2022/03/06 00:54:00;;;;;;;;;;;5.40;58.40;5.80;99520.00;;;;341762;28;94918;-85
2022/03/06 00:54:11;;;;;;;;;;;5.40;58.40;5.80;99529.00;;;;340185;28;92374;-85
2022/03/06 00:54:23;;;;;;;;;;;5.40;58.40;5.90;99524.00;;;;341682;28;96175;-85
2022/03/06 00:54:35;;;;;;;;;;;5.40;58.40;5.80;99521.00;;;;341317;28;92073;-85
2022/03/06 00:54:47;;;;;;;;;;;5.40;59.00;5.80;99520.00;;;;341716;28;96543;-85
2022/03/06 00:54:58;;;;;;;;;;;5.40;58.60;5.80;99518.00;;;;341507;28;91941;-85
2022/03/06 00:55:10;;;;;;;;;;;5.30;58.50;5.80;99507.00;;;;341648;28;95649;-85
2022/03/06 00:55:22;;;;;;;;;;;5.40;58.60;5.90;99526.00;;;;341405;28;91328;-85
2022/03/06 00:55:34;;;;;;;;;;;5.30;58.60;5.80;99513.00;;;;340302;28;94729;-85
2022/03/06 00:55:46;;;;;;;;;;;5.30;58.60;5.90;99517.00;;;;339982;28;92037;-85
2022/03/06 00:55:57;;;;;;;;;;;5.30;58.60;5.90;99520.00;;;;340470;28;93000;-86
2022/03/06 00:56:09;;;;;;;;;;;5.30;58.50;5.90;99516.00;;;;340286;28;91846;-85
2022/03/06 00:56:21;;;;;;;;;;;5.30;58.60;5.90;99519.00;;;;340221;28;96468;-85
2022/03/06 00:56:33;;;;;;;;;;;5.30;58.70;5.80;99522.00;;;;340243;28;91952;-85
2022/03/06 00:56:45;;;;;;;;;;;5.30;58.70;5.70;99528.00;;;;340426;28;96335;-85
2022/03/06 00:56:57;;;;;;;;;;;5.30;58.70;5.70;99530.00;;;;341504;28;91169;-85
2022/03/06 00:57:08;;;;;;;;;;;5.30;58.60;5.80;99528.00;;;;340318;28;93750;-85
2022/03/06 00:57:20;;;;;;;;;;;5.30;58.60;5.70;99518.00;;;;340076;28;91240;-86
2022/03/06 00:57:32;;;;;;;;;;;5.30;58.60;5.80;99512.00;;;;340480;28;93289;-85
2022/03/06 00:57:44;;;;;;;;;;;5.30;58.60;5.90;99521.00;;;;340267;28;92031;-85
2022/03/06 00:57:55;;;;;;;;;;;5.30;58.60;5.90;99515.00;;;;343072;28;96030;-85
2022/03/06 00:58:09;;;;;;;;;;;5.30;58.60;5.80;99521.00;;;;342864;28;91224;-85
2022/03/06 00:58:21;;;;;;;;;;;5.30;58.60;5.80;99521.00;;;;342739;28;96202;-85
2022/03/06 00:58:33;;;;;;;;;;;5.30;58.60;5.80;99518.00;;;;341440;28;92168;-85
2022/03/06 00:58:45;;;;;;;;;;;5.30;58.60;5.70;99531.00;;;;341617;28;94962;-85
2022/03/06 00:58:57;;;;;;;;;;;5.20;58.70;5.80;99528.00;;;;340184;28;92006;-85
2022/03/06 00:59:08;;;;;;;;;;;5.20;58.70;5.80;99522.00;;;;341659;28;95690;-85
2022/03/06 00:59:20;;;;;;;;;;;5.30;58.70;5.80;99528.00;;;;343725;28;91369;-85
2022/03/06 00:59:35;;;;;;;;;;;5.20;58.80;5.70;99522.00;;;;343219;28;93306;-85
2022/03/06 00:59:47;;;;;;;;;;;5.20;58.80;5.60;99529.00;;;;342776;28;92104;-85
2022/03/06 00:59:58;;;;;;;;;;;5.20;58.90;5.70;99524.00;;;;343056;28;96497;-85
2022/03/06 01:00:10;;;;;;;;;;;5.20;58.90;5.80;99518.00;;;;342866;28;91905;-85
2022/03/06 01:00:22;;;;;;;;;;;5.20;58.90;5.70;99518.00;;;;344428;28;93699;-85
2022/03/06 01:00:36;;;;;;;;;;;5.20;59.00;5.60;99522.00;;;;343995;28;92114;-85
2022/03/06 01:00:49;;;;;;;;;;;5.20;58.80;5.60;99519.00;;;;343067;28;95786;-85
2022/03/06 01:01:01;;;;;;;;;;;5.20;58.80;5.60;99525.00;;;;342812;28;91954;-85